23°C Temp
17°C Dewpoint
% Humidity
Temperature
8 KM/H
5 MPH
4 KTS
80°
Due East

Wind Speed
Clear
Conditions
Pressure 1015.92 (hPa) - 30 (in)
Visibility 6.2 (mi) - 10.0 (km)

Current Conditions
LIRQ
Location 35(km)
Metar :LIRQ 182120Z 08004KT CAVOK 23/17 Q1016
Sun 18th August 23:20 pm

Airport
  Metar Aviation API Data Provided by https://www.checkwx.com/ PHP scripts by weather34.com ©2019